Pelsor, AR

12:07 AM CDT on May 06, 2015 (GMT -0500)
south facing hill side | | Change Station
CLOSE
Current Station
Personal Weather Station
Location: Hector, AR
Elevation: 738 ft
Nearby Weather Stations

Elev 738 ft 35.41 °N, 92.97 °W | Updated 12 minutes ago

Clear
Clear
67.8 °F
Feels Like 67.8 °F
N
0.0
Wind Variable Wind from ENE

Today
High -- | Low -- °F
--% Chance of Precip.
Yesterday
High -- | Low -- °F
Precip. -- in
6:15 AM 8:02 PM
Waning Gibbous, 96% visible
Pressure 30.05 in
Visibility 10.0 miles
Clouds Clear
Dew Point 55 °F
Humidity 64%
Rainfall in
Snow Depth Not available.
UV 0 out of 12
Pollen 8.60 out of 12
Air Quality Not available.
Flu Activity No Activity
METAR KRUE 060453Z AUTO 10004KT 10SM CLR 21/13 A3007 RMK AO2 SLP176 T02110128

More Conditions Fewer Conditions

Pressure 30.05 in
Visibility 10.0 miles
Clouds Clear
Dew Point 55 °F
Humidity 64%
Rainfall in
Snow Depth Not available.
UV 0 out of 12
Pollen 8.60 out of 12
Air Quality Not available.
Flu Activity No Activity
METAR KRUE 060453Z AUTO 10004KT 10SM CLR 21/13 A3007 RMK AO2 SLP176 T02110128

More Conditions Fewer Conditions

10-Day Weather Forecast

Almanac

Astronomy

May. 06, 2015 Rise Set
Actual Time
Civil Twilight
Nautical Twilight
Astronomical Twilight
Moon
Length of Visible Light
Length of Day
Tomorrow will be .
, % of the Moon is Illuminated

Today's Extremes

State Highs State Lows

Community

WunderPhotos

Upload Photos

1,818,837 photos uploaded!

WunderBlogs® & News

Nearby

Air Quality

  Air Quality AQ Index Pollutant
Not available.

Snow Depth

Station Depth Elevation

Earthquake Activity

City Distance Mag. Time & Date
Minimum magnitude displayed is 2.5.

Coastal Water Temperatures

Place Temperature

Stations

Nearby Weather Stations

Station Location Temp. Windchill Dew Point Humidity Wind Precip. Elev Updated Type